createdAt,value
2018-01-30T00:00:15.694Z,21.13
2018-01-30T00:02:43.201Z,13.73
2018-01-30T00:05:11.464Z,13.17
2018-01-30T00:07:39.066Z,8.60
2018-01-30T00:12:39.452Z,17.53
2018-01-30T00:15:06.949Z,15.57
2018-01-30T00:17:35.229Z,10.27
2018-01-30T00:20:02.758Z,12.03
2018-01-30T00:22:30.285Z,12.33
2018-01-30T00:24:57.813Z,17.57
2018-01-30T00:27:25.336Z,10.63
2018-01-30T00:29:52.861Z,12.17
2018-01-30T00:32:20.372Z,13.27
2018-01-30T00:34:48.651Z,13.63
2018-01-30T00:37:16.912Z,10.47
2018-01-30T00:39:44.434Z,16.60
2018-01-30T00:42:11.966Z,9.73
2018-01-30T00:44:39.473Z,7.30
2018-01-30T00:47:06.970Z,13.77
2018-01-30T00:49:35.261Z,12.57
2018-01-30T00:52:02.763Z,19.53
2018-01-30T00:54:30.264Z,18.10
2018-01-30T00:56:58.532Z,18.17
2018-01-30T00:59:26.804Z,9.10
2018-01-30T01:01:54.305Z,15.53
2018-01-30T01:04:21.813Z,11.97
2018-01-30T01:06:49.309Z,14.20
2018-01-30T01:09:16.825Z,16.13
2018-01-30T01:11:44.377Z,11.83
2018-01-30T01:14:11.897Z,14.67
2018-01-30T01:16:39.419Z,12.10
2018-01-30T01:19:06.937Z,19.13
2018-01-30T01:21:34.509Z,13.20
2018-01-30T01:24:01.989Z,12.63
2018-01-30T01:26:29.480Z,16.90
2018-01-30T01:28:56.987Z,14.40
2018-01-30T01:31:24.500Z,11.20
2018-01-30T01:33:52.049Z,12.07
2018-01-30T01:36:20.320Z,15.57
2018-01-30T01:38:48.622Z,12.67
2018-01-30T01:41:16.147Z,17.00
2018-01-30T01:43:43.673Z,14.80
2018-01-30T01:46:11.945Z,11.67
2018-01-30T01:48:40.212Z,12.43
2018-01-30T01:51:07.705Z,16.57
2018-01-30T01:53:35.221Z,17.23
2018-01-30T01:56:02.736Z,16.43
2018-01-30T01:58:30.221Z,17.77
2018-01-30T02:00:57.733Z,18.80
2018-01-30T02:03:25.265Z,19.53
2018-01-30T02:05:52.814Z,17.90
2018-01-30T02:08:20.316Z,25.77
2018-01-30T02:10:47.825Z,29.57
2018-01-30T02:13:15.331Z,28.30
2018-01-30T02:15:42.918Z,37.23
2018-01-30T02:18:11.208Z,36.27
2018-01-30T02:20:38.716Z,34.20
2018-01-30T02:23:06.224Z,51.30
2018-01-30T02:25:34.544Z,37.30
2018-01-30T02:28:02.814Z,40.20
2018-01-30T02:30:30.336Z,31.27
2018-01-30T02:32:57.859Z,41.73
2018-01-30T02:35:25.376Z,32.53
2018-01-30T02:37:52.889Z,35.20
2018-01-30T02:40:20.419Z,44.13
2018-01-30T02:42:47.935Z,32.70
2018-01-30T02:45:16.220Z,46.90
2018-01-30T02:47:43.727Z,39.17
2018-01-30T02:50:11.248Z,50.27
2018-01-30T02:52:38.761Z,42.90
2018-01-30T02:55:06.753Z,40.73
2018-01-30T02:57:35.054Z,50.03
2018-01-30T03:00:02.639Z,44.60
2018-01-30T03:02:30.205Z,45.70
2018-01-30T03:04:57.765Z,52.60
2018-01-30T03:07:25.278Z,53.77
2018-01-30T03:09:53.902Z,58.37
2018-01-30T03:12:21.531Z,75.83
2018-01-30T03:14:49.038Z,69.43
2018-01-30T03:17:16.566Z,113.00
2018-01-30T03:19:44.122Z,202.90
2018-01-30T03:22:11.655Z,104.00
2018-01-30T03:24:39.961Z,163.37
2018-01-30T03:27:07.485Z,176.63
2018-01-30T03:29:34.993Z,109.67
2018-01-30T03:32:02.765Z,216.50
2018-01-30T03:34:30.301Z,166.07
2018-01-30T03:36:57.833Z,188.13
2018-01-30T03:39:26.122Z,314.37
2018-01-30T03:41:53.653Z,310.77
2018-01-30T03:44:21.171Z,153.13
2018-01-30T03:46:48.722Z,468.23
2018-01-30T03:49:16.241Z,259.57
2018-01-30T03:51:43.747Z,405.53
2018-01-30T03:54:11.261Z,347.23
2018-01-30T03:56:38.780Z,353.60
2018-01-30T03:59:06.285Z,265.83
2018-01-30T04:01:33.797Z,302.50
2018-01-30T04:04:01.285Z,391.20
2018-01-30T04:06:29.121Z,230.27
2018-01-30T04:08:56.631Z,420.10
2018-01-30T04:11:24.931Z,538.27
2018-01-30T04:13:52.425Z,390.63
2018-01-30T04:16:19.945Z,223.87
2018-01-30T04:18:47.485Z,272.40
2018-01-30T04:21:15.821Z,368.70
2018-01-30T04:23:43.326Z,343.70
2018-01-30T04:26:11.598Z,337.67
2018-01-30T04:28:39.117Z,285.33
2018-01-30T04:31:06.641Z,333.23
2018-01-30T04:33:34.153Z,297.63
2018-01-30T04:36:01.662Z,163.80
2018-01-30T04:38:29.180Z,309.70
2018-01-30T04:40:56.741Z,198.43
2018-01-30T04:43:24.237Z,338.50
2018-01-30T04:45:51.761Z,162.33
2018-01-30T04:48:19.253Z,77.80
2018-01-30T04:50:46.785Z,68.57
2018-01-30T04:53:14.337Z,57.60
2018-01-30T04:55:41.838Z,173.80
2018-01-30T04:58:09.418Z,105.20
2018-01-30T05:00:36.925Z,135.60
2018-01-30T05:03:04.498Z,83.23
2018-01-30T05:05:32.773Z,73.87
2018-01-30T05:08:01.082Z,125.80
2018-01-30T05:10:28.605Z,73.87
2018-01-30T05:12:56.205Z,52.60
2018-01-30T05:15:24.086Z,66.53
2018-01-30T05:17:51.617Z,56.50
2018-01-30T05:20:19.121Z,68.40
2018-01-30T05:22:46.881Z,120.20
2018-01-30T05:25:14.445Z,147.03
2018-01-30T05:27:41.999Z,108.00
2018-01-30T05:30:09.542Z,105.17
2018-01-30T05:32:37.323Z,92.93
2018-01-30T05:35:04.824Z,318.90
2018-01-30T05:37:33.162Z,298.53
2018-01-30T05:40:00.669Z,306.50
2018-01-30T05:42:28.949Z,197.27
2018-01-30T05:44:57.205Z,289.57
2018-01-30T05:47:24.756Z,143.70
2018-01-30T05:49:52.268Z,126.60
2018-01-30T05:52:19.787Z,102.60
2018-01-30T05:54:47.313Z,114.70
2018-01-30T06:00:28.496Z,105.17
2018-01-30T06:02:56.057Z,87.83
2018-01-30T06:05:23.559Z,85.23
2018-01-30T06:07:51.106Z,93.73
2018-01-30T06:10:18.617Z,205.27
2018-01-30T06:12:46.117Z,254.50
2018-01-30T06:15:13.653Z,289.27
2018-01-30T06:17:41.185Z,130.13
2018-01-30T06:20:09.499Z,68.87
2018-01-30T06:22:37.021Z,66.43
2018-01-30T06:25:05.347Z,98.83
2018-01-30T06:27:32.860Z,149.63
2018-01-30T06:30:01.150Z,112.63
2018-01-30T06:32:28.666Z,146.77
2018-01-30T06:34:56.201Z,134.67
2018-01-30T06:37:24.462Z,179.37
2018-01-30T06:39:51.994Z,148.17
2018-01-30T06:42:20.269Z,248.20
2018-01-30T06:44:48.565Z,270.17
2018-01-30T06:47:16.072Z,205.33
2018-01-30T06:49:43.606Z,197.73
2018-01-30T06:52:11.118Z,105.50
2018-01-30T06:54:39.391Z,147.70
2018-01-30T06:57:07.657Z,112.43
2018-01-30T06:59:35.187Z,123.93
2018-01-30T07:02:02.698Z,105.27
2018-01-30T07:04:30.998Z,152.33
2018-01-30T07:06:58.515Z,88.07
2018-01-30T07:09:26.034Z,163.70
2018-01-30T07:11:53.618Z,138.17
2018-01-30T07:14:21.153Z,164.27
2018-01-30T07:16:48.738Z,136.33
2018-01-30T07:19:16.262Z,116.00
2018-01-30T07:21:43.833Z,114.40
2018-01-30T07:24:11.383Z,95.33
2018-01-30T07:26:38.892Z,86.93
2018-01-30T07:29:06.405Z,82.77
2018-01-30T07:31:33.914Z,75.93
2018-01-30T07:34:01.407Z,96.87
2018-01-30T07:36:28.921Z,84.27
2018-01-30T07:38:56.430Z,86.83
2018-01-30T07:41:23.925Z,96.87
2018-01-30T07:43:51.470Z,73.67
2018-01-30T07:46:19.784Z,85.27
2018-01-30T07:48:48.093Z,71.10
2018-01-30T07:51:15.603Z,82.23
2018-01-30T07:53:43.122Z,85.17
2018-01-30T07:56:10.617Z,97.87
2018-01-30T07:58:38.140Z,70.77
2018-01-30T08:01:05.656Z,80.17
2018-01-30T08:03:33.167Z,89.90
2018-01-30T08:06:00.710Z,65.23
2018-01-30T08:08:28.245Z,73.33
2018-01-30T08:10:56.555Z,61.47
2018-01-30T08:13:24.078Z,71.83
2018-01-30T08:15:51.587Z,118.30
2018-01-30T08:18:19.146Z,149.30
2018-01-30T08:20:46.766Z,96.50
2018-01-30T08:23:15.056Z,71.90
2018-01-30T08:25:44.211Z,60.43
2018-01-30T08:28:11.746Z,66.17
2018-01-30T08:30:39.285Z,80.10
2018-01-30T08:33:06.822Z,70.23
2018-01-30T08:35:35.089Z,97.53
2018-01-30T08:38:02.629Z,145.60
2018-01-30T08:40:30.152Z,79.23
2018-01-30T08:42:57.689Z,69.13
2018-01-30T08:45:25.293Z,66.83
2018-01-30T08:47:52.816Z,61.83
2018-01-30T08:50:20.318Z,71.50
2018-01-30T08:52:47.846Z,74.50
2018-01-30T08:55:15.361Z,76.17
2018-01-30T08:57:42.870Z,69.40
2018-01-30T09:00:10.389Z,65.23
2018-01-30T09:02:38.736Z,65.10
2018-01-30T09:05:06.262Z,63.63
2018-01-30T09:07:33.795Z,52.97
2018-01-30T09:10:02.103Z,57.00
2018-01-30T09:12:29.667Z,69.03
2018-01-30T09:14:57.224Z,60.43
2018-01-30T09:17:24.748Z,66.23
2018-01-30T09:19:53.046Z,57.10
2018-01-30T09:22:20.561Z,59.57
2018-01-30T09:24:48.071Z,59.97
2018-01-30T09:27:15.601Z,68.70
2018-01-30T09:29:43.865Z,62.83
2018-01-30T09:32:11.694Z,59.60
2018-01-30T09:34:39.201Z,60.83
2018-01-30T09:37:07.488Z,67.30
2018-01-30T09:39:35.758Z,60.70
2018-01-30T09:42:04.033Z,49.10
2018-01-30T09:44:32.306Z,48.80
2018-01-30T09:46:59.796Z,45.03
2018-01-30T09:49:27.341Z,53.63
2018-01-30T09:51:54.838Z,59.10
2018-01-30T09:54:22.367Z,56.73
2018-01-30T09:56:49.869Z,54.47
2018-01-30T09:59:17.396Z,54.73
2018-01-30T10:01:44.920Z,58.13
2018-01-30T10:04:13.267Z,56.03
2018-01-30T10:06:40.772Z,54.27
2018-01-30T10:09:09.074Z,50.73
2018-01-30T10:11:36.594Z,42.50
2018-01-30T10:14:04.108Z,47.00
2018-01-30T10:16:31.628Z,46.83
2018-01-30T10:18:59.178Z,189.43
2018-01-30T10:21:27.464Z,52.20
2018-01-30T10:23:55.757Z,59.50
2018-01-30T10:26:23.258Z,58.27
2018-01-30T10:28:50.803Z,48.37
2018-01-30T10:31:18.318Z,51.20
2018-01-30T10:33:46.585Z,44.57
2018-01-30T10:36:14.883Z,54.70
2018-01-30T10:38:42.402Z,49.57
2018-01-30T10:41:09.945Z,47.70
2018-01-30T10:43:37.450Z,41.17
2018-01-30T10:46:05.722Z,44.70
2018-01-30T10:48:34.008Z,42.07
2018-01-30T10:51:02.299Z,41.00
2018-01-30T10:53:29.841Z,37.20
2018-01-30T10:55:58.156Z,39.53
2018-01-30T10:58:25.665Z,42.83
2018-01-30T11:00:53.169Z,38.43
2018-01-30T11:03:20.691Z,36.17
2018-01-30T11:05:48.998Z,38.30
2018-01-30T11:08:16.531Z,38.13
2018-01-30T11:10:44.841Z,37.10
2018-01-30T11:13:12.361Z,37.30
2018-01-30T11:15:39.883Z,34.70
2018-01-30T11:18:07.381Z,28.93
2018-01-30T11:20:35.715Z,29.73
2018-01-30T11:23:03.218Z,33.10
2018-01-30T11:25:30.701Z,33.40
2018-01-30T11:27:58.201Z,29.33
2018-01-30T11:30:25.724Z,21.70
2018-01-30T11:32:53.279Z,25.37
2018-01-30T11:35:21.542Z,26.37
2018-01-30T11:37:49.830Z,22.27
2018-01-30T11:40:17.325Z,27.60
2018-01-30T11:42:44.836Z,35.47
2018-01-30T11:45:13.112Z,24.43
2018-01-30T11:47:41.377Z,26.27
2018-01-30T11:50:08.886Z,24.10
2018-01-30T11:52:37.204Z,26.63
2018-01-30T11:55:04.711Z,23.50
2018-01-30T11:57:32.229Z,39.43
2018-01-30T11:59:59.782Z,30.00
2018-01-30T12:02:27.306Z,23.40
2018-01-30T12:04:54.830Z,16.10
2018-01-30T12:07:23.104Z,19.60
2018-01-30T12:09:51.377Z,27.63
2018-01-30T12:12:19.705Z,22.30
2018-01-30T12:14:47.213Z,19.60
2018-01-30T12:17:15.523Z,23.70
2018-01-30T12:19:43.051Z,22.60
2018-01-30T12:22:11.318Z,24.83
2018-01-30T12:24:38.841Z,20.10
2018-01-30T12:27:06.353Z,18.43
2018-01-30T12:29:34.631Z,20.27
2018-01-30T12:32:03.277Z,18.30
2018-01-30T12:34:30.797Z,26.00
2018-01-30T12:36:58.302Z,17.50
2018-01-30T12:39:26.601Z,22.20
2018-01-30T12:41:54.862Z,18.17
2018-01-30T12:44:22.377Z,21.43
2018-01-30T12:46:49.877Z,23.47
2018-01-30T12:49:17.385Z,14.50
2018-01-30T12:51:44.881Z,19.77
2018-01-30T12:54:12.401Z,18.57
2018-01-30T12:56:39.910Z,14.10
2018-01-30T12:59:07.443Z,16.87
2018-01-30T13:01:34.946Z,17.07
2018-01-30T13:04:02.450Z,16.77
2018-01-30T13:06:29.961Z,19.40
2018-01-30T13:08:57.449Z,14.87
2018-01-30T13:11:24.992Z,18.40
2018-01-30T13:13:53.270Z,17.73
2018-01-30T13:16:21.544Z,21.40
2018-01-30T13:18:49.821Z,17.80
2018-01-30T13:21:18.180Z,14.07
2018-01-30T13:23:45.682Z,16.97
2018-01-30T13:26:13.191Z,17.00
2018-01-30T13:28:40.696Z,15.83
2018-01-30T13:31:08.205Z,17.07
2018-01-30T13:33:35.713Z,16.57
2018-01-30T13:36:04.059Z,18.80
2018-01-30T13:38:31.569Z,18.53
2018-01-30T13:40:59.093Z,18.70
2018-01-30T13:43:27.382Z,18.90
2018-01-30T13:45:55.656Z,18.33
2018-01-30T13:48:23.933Z,16.70
2018-01-30T13:50:52.213Z,23.10
2018-01-30T13:53:20.478Z,15.23
2018-01-30T13:55:48.765Z,16.07
2018-01-30T13:58:17.034Z,19.27
2018-01-30T14:00:45.333Z,25.87
2018-01-30T14:03:12.837Z,22.63
2018-01-30T14:05:40.350Z,23.20
2018-01-30T14:08:07.868Z,18.47
2018-01-30T14:10:35.373Z,18.43
2018-01-30T14:13:02.926Z,18.10
2018-01-30T14:15:30.419Z,16.37
2018-01-30T14:17:57.921Z,15.73
2018-01-30T14:20:25.430Z,17.90
2018-01-30T14:22:52.930Z,14.30
2018-01-30T14:25:20.437Z,18.10
2018-01-30T14:27:47.948Z,43.73
2018-01-30T14:30:15.454Z,21.70
2018-01-30T14:32:42.961Z,281.33
2018-01-30T14:35:10.517Z,78.97
2018-01-30T14:37:38.000Z,32.13
2018-01-30T14:40:06.257Z,43.23
2018-01-30T14:42:33.730Z,23.27
2018-01-30T14:45:01.980Z,28.23
2018-01-30T14:47:29.452Z,22.77
2018-01-30T14:49:56.934Z,40.73
2018-01-30T14:52:25.176Z,40.90
2018-01-30T14:54:52.656Z,19.07
2018-01-30T14:57:20.129Z,23.93
2018-01-30T14:59:48.377Z,20.70
2018-01-30T15:02:15.850Z,35.43
2018-01-30T15:04:43.320Z,20.10
2018-01-30T15:07:11.560Z,25.03
2018-01-30T15:09:39.043Z,32.83
2018-01-30T15:12:06.512Z,30.50
2018-01-30T15:14:34.756Z,18.10
2018-01-30T15:17:02.242Z,20.17
2018-01-30T15:19:30.485Z,21.00
2018-01-30T15:21:57.964Z,24.37
2018-01-30T15:24:25.432Z,20.80
2018-01-30T15:26:53.680Z,22.47
2018-01-30T15:29:21.153Z,15.30
2018-01-30T15:31:48.629Z,15.97
2018-01-30T15:34:16.868Z,18.27
2018-01-30T15:36:44.345Z,19.67
2018-01-30T15:39:11.818Z,17.40
2018-01-30T15:41:40.076Z,28.57
2018-01-30T15:44:07.552Z,34.27
2018-01-30T15:46:35.801Z,31.07
2018-01-30T15:49:03.278Z,20.67
2018-01-30T15:51:30.761Z,66.40
2018-01-30T15:53:59.001Z,51.87
2018-01-30T15:56:26.484Z,40.83
2018-01-30T15:58:54.733Z,187.43
2018-01-30T16:01:22.232Z,123.17
2018-01-30T16:03:50.472Z,314.40
2018-01-30T16:06:17.948Z,507.57
2018-01-30T16:08:46.211Z,253.97
2018-01-30T16:11:13.684Z,220.40
2018-01-30T16:13:41.936Z,318.60
2018-01-30T16:16:09.413Z,124.60
2018-01-30T16:18:36.904Z,129.40
2018-01-30T16:21:04.380Z,105.40
2018-01-30T16:23:31.860Z,101.57
2018-01-30T16:25:59.333Z,36.63
2018-01-30T16:28:27.588Z,33.03
2018-01-30T16:30:55.060Z,35.30
2018-01-30T16:33:22.550Z,30.07
2018-01-30T16:35:50.792Z,36.50
2018-01-30T16:38:18.296Z,23.60
2018-01-30T16:40:46.536Z,28.13
2018-01-30T16:43:14.017Z,43.30
2018-01-30T16:45:41.495Z,32.23
2018-01-30T16:48:08.973Z,100.10
2018-01-30T16:50:36.457Z,158.53
2018-01-30T16:53:03.928Z,36.97
2018-01-30T16:55:31.425Z,73.07
2018-01-30T16:57:59.665Z,30.93
2018-01-30T17:00:27.148Z,38.90
2018-01-30T17:02:55.791Z,76.17
2018-01-30T17:05:23.275Z,57.43
2018-01-30T17:07:50.748Z,44.73
2018-01-30T17:10:19.026Z,28.70
2018-01-30T17:12:47.293Z,219.70
2018-01-30T17:15:15.614Z,44.03
2018-01-30T17:17:43.109Z,355.33
2018-01-30T17:20:10.592Z,410.53
2018-01-30T17:22:38.055Z,98.20
2018-01-30T17:25:06.314Z,45.20
2018-01-30T17:27:35.292Z,39.80
2018-01-30T17:30:02.765Z,39.00
2018-01-30T17:32:30.244Z,38.53
2018-01-30T17:34:58.482Z,34.10
2018-01-30T17:37:25.972Z,39.40
2018-01-30T17:39:53.440Z,126.37
2018-01-30T17:42:21.704Z,40.33
2018-01-30T17:44:49.172Z,79.87
2018-01-30T17:47:17.461Z,35.77
2018-01-30T17:49:45.688Z,35.60
2018-01-30T17:52:13.173Z,34.33
2018-01-30T17:54:40.640Z,57.03
2018-01-30T17:57:08.887Z,33.30
2018-01-30T17:59:36.361Z,46.60
2018-01-30T18:02:03.840Z,55.27
2018-01-30T18:04:32.072Z,46.53
2018-01-30T18:06:59.553Z,42.17
2018-01-30T18:09:27.066Z,38.40
2018-01-30T18:11:54.560Z,38.93
2018-01-30T18:14:22.025Z,32.57
2018-01-30T18:16:49.509Z,33.13
2018-01-30T18:19:17.759Z,30.00
2018-01-30T18:21:45.232Z,28.80
2018-01-30T18:24:12.717Z,32.60
2018-01-30T18:26:40.181Z,28.43
2018-01-30T18:29:07.665Z,28.47
2018-01-30T18:31:35.141Z,27.07
2018-01-30T18:34:02.996Z,28.80
2018-01-30T18:36:30.472Z,29.23
2018-01-30T18:39:20.831Z,31.23
2018-01-30T18:41:48.308Z,31.57
2018-01-30T18:44:15.792Z,27.67
2018-01-30T18:46:43.261Z,28.20
2018-01-30T18:49:10.744Z,24.40
2018-01-30T18:51:38.226Z,30.23
2018-01-30T18:54:05.705Z,31.97
2018-01-30T18:56:33.182Z,24.50
2018-01-30T18:59:00.708Z,28.40
2018-01-30T19:01:28.176Z,33.47
2018-01-30T19:03:55.708Z,39.47
2018-01-30T19:06:23.226Z,26.83
2018-01-30T19:08:50.738Z,24.13
2018-01-30T19:11:18.217Z,24.93
2018-01-30T19:13:45.709Z,23.87
2018-01-30T19:16:13.240Z,25.17
2018-01-30T19:18:40.789Z,24.53
2018-01-30T19:21:08.260Z,25.30
2018-01-30T19:23:35.732Z,25.30
2018-01-30T19:26:03.268Z,21.13
2018-01-30T19:28:30.745Z,19.23
2018-01-30T19:30:58.275Z,23.23
2018-01-30T19:33:25.800Z,23.80
2018-01-30T19:35:53.341Z,22.17
2018-01-30T19:38:20.807Z,21.43
2018-01-30T19:40:49.057Z,21.83
2018-01-30T19:43:16.579Z,23.63
2018-01-30T19:45:44.103Z,19.93
2018-01-30T19:48:12.358Z,18.20
2018-01-30T19:50:39.832Z,22.37
2018-01-30T19:53:08.361Z,17.80
2018-01-30T19:55:35.887Z,17.30
2018-01-30T19:58:04.120Z,17.23
2018-01-30T20:00:31.647Z,14.00
2018-01-30T20:02:59.125Z,15.13
2018-01-30T20:05:26.647Z,15.17
2018-01-30T20:07:55.717Z,19.47
2018-01-30T20:10:23.549Z,20.00
2018-01-30T20:12:51.025Z,15.30
2018-01-30T20:15:18.540Z,21.33
2018-01-30T20:17:46.076Z,13.77
2018-01-30T20:20:14.308Z,15.40
2018-01-30T20:22:41.840Z,17.03
2018-01-30T20:25:09.308Z,16.97
2018-01-30T20:27:36.785Z,14.57
2018-01-30T20:30:04.303Z,20.67
2018-01-30T20:32:31.834Z,20.67
2018-01-30T20:34:59.353Z,17.37
2018-01-30T20:37:26.833Z,15.37
2018-01-30T20:39:54.304Z,17.73
2018-01-30T20:42:21.788Z,16.03
2018-01-30T20:44:50.081Z,19.50
2018-01-30T20:47:17.609Z,16.70
2018-01-30T20:49:45.119Z,19.47
2018-01-30T20:52:12.640Z,10.63
2018-01-30T20:54:40.885Z,16.73
2018-01-30T20:57:08.408Z,13.00
2018-01-30T20:59:36.188Z,12.30
2018-01-30T21:02:03.708Z,11.53
2018-01-30T21:04:31.939Z,11.40
2018-01-30T21:06:59.464Z,10.27
2018-01-30T21:09:26.979Z,8.87
2018-01-30T21:11:54.489Z,12.90
2018-01-30T21:14:21.966Z,11.97
2018-01-30T21:16:49.433Z,10.13
2018-01-30T21:19:16.961Z,13.00
2018-01-30T21:21:44.475Z,11.50
2018-01-30T21:24:11.953Z,10.00
2018-01-30T21:26:40.227Z,12.90
2018-01-30T21:29:08.520Z,11.90
2018-01-30T21:31:35.992Z,12.47
2018-01-30T21:34:03.468Z,11.60
2018-01-30T21:36:30.992Z,11.13
2018-01-30T21:38:58.484Z,12.63
2018-01-30T21:41:26.029Z,13.17
2018-01-30T21:43:53.481Z,11.07
2018-01-30T21:46:20.960Z,14.17
2018-01-30T21:48:48.428Z,20.20
2018-01-30T21:51:15.908Z,10.53
2018-01-30T21:53:43.376Z,12.20
2018-01-30T21:56:11.619Z,26.83
2018-01-30T21:58:39.084Z,18.67
2018-01-30T22:01:06.620Z,14.87
2018-01-30T22:03:34.088Z,18.97
2018-01-30T22:06:01.564Z,15.90
2018-01-30T22:08:29.038Z,13.73
2018-01-30T22:10:56.563Z,22.90
2018-01-30T22:13:24.038Z,10.83
2018-01-30T22:15:51.545Z,14.57
2018-01-30T22:18:19.079Z,12.93
2018-01-30T22:20:47.363Z,13.37
2018-01-30T22:23:15.634Z,16.13
2018-01-30T22:25:43.181Z,14.10
2018-01-30T22:28:10.719Z,12.87
2018-01-30T22:30:38.269Z,43.90
2018-01-30T22:33:05.811Z,14.53
2018-01-30T22:35:33.432Z,14.27
2018-01-30T22:38:00.941Z,12.03
2018-01-30T22:40:28.437Z,13.80
2018-01-30T22:42:55.945Z,9.83
2018-01-30T22:45:23.530Z,11.67
